This is the latest recevied weather packets stored in our database for station/object F8BJE-13. If no packets are shown the sender has not sent any weather packets the latest 10 day(s).
| Time | Temp. | Humidity | Pressure | Rain* | Wind** | Luminosity | Snow |
|---|---|---|---|---|---|---|---|
| 1777645655 | 28.33° C | 28% | 1021.5 hPa | 0 mm | - | - | - |
| 1777643856 | 28.89° C | 27% | 1021.6 hPa | 0 mm | - | - | - |
| 1777642056 | 28.33° C | 30% | 1022 hPa | 0 mm | - | - | - |
| 1777640256 | 27.22° C | 30% | 1022.4 hPa | 0 mm | - | - | - |
| 1777638456 | 25.56° C | 30% | 1022.8 hPa | 0 mm | - | - | - |
| 1777636655 | 25° C | 31% | 1022.7 hPa | 0 mm | - | - | - |
| 1777634855 | 24.44° C | 33% | 1023.3 hPa | 0 mm | - | - | - |
| 1777633055 | 23.89° C | 35% | 1023.2 hPa | 0 mm | - | - | - |
| 1777631256 | 22.78° C | 40% | 1023.5 hPa | 0 mm | - | - | - |
| 1777629455 | 24.44° C | 39% | 1023.6 hPa | 0 mm | - | - | - |
| 1777627655 | 22.22° C | 40% | 1023.7 hPa | 0 mm | - | - | - |
| 1777625856 | 22.22° C | 40% | 1023.8 hPa | 0 mm | - | - | - |
| 1777624056 | 20.56° C | 39% | 1023.9 hPa | 0 mm | - | - | - |
| 1777622256 | 19.44° C | 39% | 1023.8 hPa | 0 mm | - | - | - |
| 1777620455 | 17.78° C | 40% | 1023.7 hPa | 0 mm | - | - | - |
| 1777618656 | 17.78° C | 37% | 1023.4 hPa | 0 mm | - | - | - |
| 1777616856 | 15.56° C | 40% | 1023.4 hPa | 0 mm | - | - | - |
| 1777615057 | 12.78° C | 50% | 1023.1 hPa | 0 mm | - | - | - |
| 1777613256 | 8.33° C | 60% | 1023 hPa | 0 mm | - | - | - |
| 1777611457 | 7.78° C | 59% | 1022.7 hPa | 0 mm | - | - | - |
| 1777609655 | 7.78° C | 61% | 1022.1 hPa | 0 mm | - | - | - |
| 1777607856 | 8.33° C | 59% | 1022.2 hPa | 0 mm | - | - | - |
| 1777606056 | 8.33° C | 57% | 1021.9 hPa | 0 mm | - | - | - |
| 1777604257 | 8.89° C | 58% | 1021.7 hPa | 0 mm | - | - | - |
| 1777602455 | 9.44° C | 59% | 1021.8 hPa | 0 mm | - | - | - |
* Rain latest hour (hover to see other rain measurements)
** Current wind speed in m/s (hover to see current wind gust speed)